createdAt,value
2022-08-19T00:01:26.283Z,22.75
2022-08-19T00:03:59.012Z,24.05
2022-08-19T00:06:27.850Z,25.98
2022-08-19T00:08:54.937Z,26.73
2022-08-19T00:11:25.518Z,26.15
2022-08-19T00:13:53.384Z,25.40
2022-08-19T00:16:25.126Z,27.15
2022-08-19T00:18:54.487Z,29.45
2022-08-19T00:21:21.550Z,26.33
2022-08-19T00:23:48.885Z,27.55
2022-08-19T00:26:15.791Z,26.88
2022-08-19T00:28:42.767Z,26.25
2022-08-19T00:31:10.405Z,30.73
2022-08-19T00:33:37.837Z,28.48
2022-08-19T00:36:07.442Z,27.35
2022-08-19T00:38:38.108Z,30.85
2022-08-19T00:41:08.470Z,28.65
2022-08-19T00:43:36.055Z,29.30
2022-08-19T00:46:05.624Z,30.92
2022-08-19T00:48:34.506Z,29.02
2022-08-19T00:51:02.769Z,30.75
2022-08-19T00:53:33.021Z,27.58
2022-08-19T00:56:02.131Z,27.00
2022-08-19T00:58:33.423Z,28.20
2022-08-19T01:01:01.785Z,31.70
2022-08-19T01:03:28.815Z,28.50
2022-08-19T01:06:15.748Z,28.65
2022-08-19T01:08:47.558Z,26.75
2022-08-19T01:11:17.522Z,28.77
2022-08-19T01:13:50.059Z,26.50
2022-08-19T01:16:19.754Z,30.75
2022-08-19T01:21:31.837Z,31.15
2022-08-19T01:23:58.799Z,28.48
2022-08-19T01:26:31.189Z,30.83
2022-08-19T01:29:01.926Z,28.67
2022-08-19T01:31:33.505Z,31.38
2022-08-19T01:34:02.416Z,31.67
2022-08-19T01:36:29.354Z,28.60
2022-08-19T01:38:57.124Z,30.67
2022-08-19T01:41:24.427Z,29.35
2022-08-19T01:44:09.950Z,30.77
2022-08-19T01:46:41.212Z,28.15
2022-08-19T01:49:09.174Z,27.85
2022-08-19T01:51:39.802Z,26.67
2022-08-19T01:54:08.990Z,28.75
2022-08-19T01:56:36.725Z,29.50
2022-08-19T01:59:07.393Z,27.98
2022-08-19T02:01:34.946Z,30.73
2022-08-19T02:04:02.232Z,29.20
2022-08-19T02:06:29.767Z,25.55
2022-08-19T02:08:57.320Z,27.65
2022-08-19T02:11:34.420Z,28.02
2022-08-19T02:14:08.088Z,23.42
2022-08-19T02:16:37.162Z,27.67
2022-08-19T02:19:04.969Z,27.15
2022-08-19T02:21:32.250Z,27.30
2022-08-19T02:23:59.641Z,31.67
2022-08-19T02:26:27.662Z,22.77
2022-08-19T02:28:55.626Z,23.63
2022-08-19T02:31:25.674Z,26.05
2022-08-19T02:33:56.650Z,24.42
2022-08-19T02:36:25.569Z,26.70
2022-08-19T02:38:54.777Z,25.15
2022-08-19T02:41:34.042Z,25.67
2022-08-19T02:44:29.968Z,26.73
2022-08-19T02:46:51.761Z,24.80
2022-08-19T02:49:20.766Z,27.95
2022-08-19T02:51:48.306Z,24.98
2022-08-19T02:54:15.590Z,27.75
2022-08-19T02:56:44.479Z,30.48
2022-08-19T02:59:12.752Z,27.73
2022-08-19T03:01:41.966Z,32.38
2022-08-19T03:04:16.516Z,30.65
2022-08-19T03:06:45.483Z,32.83
2022-08-19T03:09:13.625Z,35.08
2022-08-19T03:11:40.573Z,33.10
2022-08-19T03:14:09.373Z,31.70
2022-08-19T03:16:45.603Z,33.50
2022-08-19T03:19:13.536Z,28.13
2022-08-19T03:21:40.821Z,30.65
2022-08-19T03:24:09.503Z,30.73
2022-08-19T03:26:40.819Z,32.78
2022-08-19T03:29:11.349Z,31.08
2022-08-19T03:31:50.927Z,32.25
2022-08-19T03:34:28.307Z,29.48
2022-08-19T03:36:57.139Z,32.70
2022-08-19T03:39:25.719Z,29.42
2022-08-19T03:42:29.267Z,30.17
2022-08-19T03:44:42.082Z,34.40
2022-08-19T03:47:09.002Z,36.45
2022-08-19T03:49:36.770Z,32.30
2022-08-19T03:52:08.132Z,33.90
2022-08-19T03:54:35.838Z,34.10
2022-08-19T03:57:03.933Z,35.08
2022-08-19T03:59:34.604Z,33.38
2022-08-19T04:02:04.285Z,36.47
2022-08-19T04:04:31.171Z,37.95
2022-08-19T04:06:59.369Z,36.30
2022-08-19T04:09:26.929Z,39.33
2022-08-19T04:11:56.063Z,37.35
2022-08-19T04:14:29.428Z,36.83
2022-08-19T04:16:56.620Z,41.08
2022-08-19T04:19:24.261Z,44.88
2022-08-19T04:21:53.765Z,42.28
2022-08-19T04:24:21.534Z,45.20
2022-08-19T04:26:49.755Z,45.17
2022-08-19T04:29:22.654Z,45.13
2022-08-19T04:31:50.405Z,45.03
2022-08-19T04:34:23.485Z,46.38
2022-08-19T04:36:52.201Z,45.42
2022-08-19T04:39:22.657Z,47.10
2022-08-19T04:42:22.581Z,45.95
2022-08-19T04:44:59.550Z,45.15
2022-08-19T04:47:47.443Z,55.83
2022-08-19T04:50:14.115Z,47.90
2022-08-19T04:52:43.762Z,43.65
2022-08-19T04:55:13.580Z,48.28
2022-08-19T04:57:41.280Z,46.70
2022-08-19T05:00:09.938Z,46.72
2022-08-19T05:02:37.247Z,48.88
2022-08-19T05:05:04.517Z,50.05
2022-08-19T05:07:31.987Z,42.50
2022-08-19T05:09:59.331Z,46.20
2022-08-19T05:12:30.576Z,48.25
2022-08-19T05:14:59.022Z,49.00
2022-08-19T05:17:29.579Z,46.67
2022-08-19T05:20:17.130Z,45.78
2022-08-19T05:22:46.108Z,50.47
2022-08-19T05:25:16.203Z,56.90
2022-08-19T05:27:43.411Z,56.22
2022-08-19T05:30:11.848Z,62.28
2022-08-19T05:32:40.142Z,62.03
2022-08-19T05:35:07.852Z,67.97
2022-08-19T05:37:34.985Z,71.28
2022-08-19T05:40:02.406Z,68.40
2022-08-19T05:42:29.554Z,70.32
2022-08-19T05:44:57.736Z,61.63
2022-08-19T05:47:24.881Z,62.75
2022-08-19T05:49:52.215Z,64.68
2022-08-19T05:52:25.902Z,57.15
2022-08-19T05:54:56.601Z,62.35
2022-08-19T05:57:25.383Z,79.97
2022-08-19T05:59:58.026Z,82.17
2022-08-19T06:02:29.547Z,86.00
2022-08-19T06:04:56.504Z,93.35
2022-08-19T06:07:23.670Z,106.85
2022-08-19T06:10:00.075Z,117.50
2022-08-19T06:12:35.862Z,133.50
2022-08-19T06:15:07.871Z,146.70
2022-08-19T06:17:36.126Z,139.85
2022-08-19T06:20:08.414Z,155.60
2022-08-19T06:22:43.018Z,150.25
2022-08-19T06:25:10.614Z,159.00
2022-08-19T06:27:42.006Z,151.68
2022-08-19T06:30:15.911Z,144.90
2022-08-19T06:32:43.085Z,151.70
2022-08-19T06:35:10.026Z,150.05
2022-08-19T06:37:40.827Z,145.75
2022-08-19T06:40:12.030Z,148.18
2022-08-19T06:42:39.388Z,143.77
2022-08-19T06:45:11.832Z,143.63
2022-08-19T06:47:38.685Z,140.65
2022-08-19T06:50:06.130Z,143.38
2022-08-19T06:52:36.654Z,138.48
2022-08-19T06:55:06.262Z,138.13
2022-08-19T06:57:34.459Z,134.30
2022-08-19T07:00:01.983Z,123.97
2022-08-19T07:02:29.194Z,115.63
2022-08-19T07:04:58.861Z,127.78
2022-08-19T07:07:26.301Z,125.55
2022-08-19T07:09:58.438Z,122.03
2022-08-19T07:12:33.854Z,123.13
2022-08-19T07:15:04.285Z,115.95
2022-08-19T07:17:34.406Z,104.43
2022-08-19T07:20:05.505Z,116.40
2022-08-19T07:22:37.398Z,105.97
2022-08-19T07:25:06.466Z,102.22
2022-08-19T07:30:01.657Z,96.05
2022-08-19T07:32:28.731Z,94.05
2022-08-19T07:34:57.194Z,83.30
2022-08-19T07:37:32.441Z,86.00
2022-08-19T07:40:00.481Z,80.78
2022-08-19T07:42:29.076Z,83.03
2022-08-19T07:44:55.895Z,74.35
2022-08-19T07:47:50.424Z,70.68
2022-08-19T07:50:12.471Z,73.78
2022-08-19T07:52:40.589Z,71.00
2022-08-19T07:55:13.635Z,64.35
2022-08-19T07:57:58.631Z,67.47
2022-08-19T08:00:25.776Z,65.57
2022-08-19T08:02:55.488Z,57.53
2022-08-19T08:05:45.017Z,60.88
2022-08-19T08:08:32.035Z,60.03
2022-08-19T08:11:00.189Z,51.25
2022-08-19T08:13:29.274Z,47.40
2022-08-19T08:15:57.330Z,43.28
2022-08-19T08:18:30.469Z,39.53
2022-08-19T08:20:58.152Z,39.90
2022-08-19T08:23:29.676Z,37.88
2022-08-19T08:25:58.944Z,38.20
2022-08-19T08:28:29.788Z,39.60
2022-08-19T08:30:58.076Z,44.20
2022-08-19T08:33:33.769Z,46.53
2022-08-19T08:36:08.453Z,40.85
2022-08-19T08:38:39.674Z,37.92
2022-08-19T08:41:35.551Z,41.72
2022-08-19T08:44:05.706Z,32.20
2022-08-19T08:46:50.477Z,42.05
2022-08-19T08:49:41.785Z,41.97
2022-08-19T08:52:31.941Z,33.50
2022-08-19T08:55:10.263Z,36.67
2022-08-19T08:57:55.621Z,30.98
2022-08-19T09:00:39.140Z,39.47
2022-08-19T09:03:33.165Z,35.25
2022-08-19T09:06:14.681Z,33.65
2022-08-19T09:08:44.298Z,36.10
2022-08-19T09:11:42.625Z,35.67
2022-08-19T09:14:51.139Z,31.63
2022-08-19T09:17:29.123Z,32.95
2022-08-19T09:20:20.045Z,34.45
2022-08-19T09:22:47.591Z,28.30
2022-08-19T09:25:24.724Z,28.77
2022-08-19T09:28:02.428Z,29.75
2022-08-19T09:30:33.634Z,31.10
2022-08-19T09:33:01.844Z,26.95
2022-08-19T09:35:31.230Z,29.13
2022-08-19T09:38:00.447Z,28.52
2022-08-19T09:40:35.436Z,27.33
2022-08-19T09:43:09.920Z,26.92
2022-08-19T09:45:37.145Z,22.50
2022-08-19T09:48:04.522Z,22.50
2022-08-19T09:50:36.701Z,23.58
2022-08-19T09:53:04.152Z,28.88
2022-08-19T09:55:33.800Z,28.50
2022-08-19T09:58:02.273Z,22.17
2022-08-19T10:00:29.492Z,27.90
2022-08-19T10:02:56.473Z,21.33
2022-08-19T10:05:42.702Z,18.75
2022-08-19T10:08:13.057Z,24.13
2022-08-19T10:10:44.163Z,25.77
2022-08-19T10:13:16.891Z,30.88
2022-08-19T10:15:47.766Z,23.33
2022-08-19T10:18:19.291Z,23.05
2022-08-19T10:20:51.339Z,26.88
2022-08-19T10:23:20.863Z,24.23
2022-08-19T10:25:48.904Z,20.77
2022-08-19T10:28:16.055Z,30.98
2022-08-19T10:30:45.869Z,28.40
2022-08-19T10:33:12.917Z,26.55
2022-08-19T10:35:56.488Z,26.30
2022-08-19T10:38:31.415Z,27.77
2022-08-19T10:41:07.687Z,26.52
2022-08-19T10:43:37.863Z,21.25
2022-08-19T10:46:13.935Z,22.75
2022-08-19T10:48:44.268Z,20.00
2022-08-19T10:51:30.635Z,24.20
2022-08-19T10:53:58.126Z,21.23
2022-08-19T10:56:47.368Z,20.63
2022-08-19T10:59:15.400Z,20.75
2022-08-19T11:01:44.533Z,18.92
2022-08-19T11:06:39.439Z,15.93
2022-08-19T11:09:07.101Z,13.70
2022-08-19T11:11:41.575Z,13.73
2022-08-19T11:14:10.615Z,12.43
2022-08-19T11:19:09.122Z,17.45
2022-08-19T11:21:41.920Z,14.07
2022-08-19T11:24:12.251Z,16.30
2022-08-19T11:26:40.509Z,13.32
2022-08-19T11:29:12.455Z,15.68
2022-08-19T11:31:41.906Z,14.23
2022-08-19T11:34:11.047Z,14.43
2022-08-19T11:39:09.576Z,14.60
2022-08-19T11:41:36.745Z,10.65
2022-08-19T11:44:05.478Z,16.63
2022-08-19T11:46:32.664Z,15.48
2022-08-19T11:49:01.544Z,17.13
2022-08-19T11:51:29.435Z,16.70
2022-08-19T11:53:57.304Z,17.38
2022-08-19T11:56:26.186Z,17.35
2022-08-19T11:58:54.332Z,19.92
2022-08-19T12:01:23.132Z,17.17
2022-08-19T12:03:52.764Z,17.90
2022-08-19T12:06:29.696Z,15.95
2022-08-19T12:08:58.669Z,20.80
2022-08-19T12:11:26.730Z,13.65
2022-08-19T12:13:54.634Z,10.18
2022-08-19T12:16:24.824Z,11.45
2022-08-19T12:18:52.296Z,14.65
2022-08-19T12:21:22.601Z,11.98
2022-08-19T12:23:55.704Z,9.23
2022-08-19T12:26:23.463Z,8.50
2022-08-19T12:28:50.699Z,9.10
2022-08-19T12:31:18.309Z,11.68
2022-08-19T12:33:45.159Z,7.60
2022-08-19T12:36:15.335Z,10.13
2022-08-19T12:38:43.898Z,6.50
2022-08-19T12:41:14.190Z,8.55
2022-08-19T12:43:45.601Z,8.13
2022-08-19T12:46:12.927Z,6.70
2022-08-19T12:48:43.633Z,6.20
2022-08-19T12:51:17.523Z,8.68
2022-08-19T12:53:44.950Z,9.93
2022-08-19T12:56:13.781Z,5.82
2022-08-19T12:58:42.671Z,6.70
2022-08-19T13:01:18.254Z,6.30
2022-08-19T13:03:51.023Z,7.72
2022-08-19T13:06:19.561Z,5.82
2022-08-19T13:08:47.495Z,6.43
2022-08-19T13:11:20.416Z,5.90
2022-08-19T13:13:49.566Z,4.53
2022-08-19T13:18:48.398Z,7.63
2022-08-19T13:21:15.646Z,7.22
2022-08-19T13:23:43.174Z,7.15
2022-08-19T13:26:12.765Z,9.32
2022-08-19T13:28:59.437Z,5.28
2022-08-19T13:31:51.617Z,5.82
2022-08-19T13:34:22.009Z,6.47
2022-08-19T13:36:48.979Z,4.85
2022-08-19T13:39:16.012Z,5.82
2022-08-19T13:41:49.026Z,6.90
2022-08-19T13:44:19.311Z,5.05
2022-08-19T13:46:48.117Z,4.38
2022-08-19T13:49:15.868Z,5.45
2022-08-19T13:51:44.549Z,3.88
2022-08-19T13:54:14.451Z,3.42
2022-08-19T13:56:46.245Z,3.33
2022-08-19T13:59:13.279Z,6.40
2022-08-19T14:01:40.760Z,4.72
2022-08-19T14:04:10.290Z,6.47
2022-08-19T14:06:37.283Z,3.97
2022-08-19T14:09:06.147Z,3.00
2022-08-19T14:11:33.013Z,4.25
2022-08-19T14:14:02.744Z,5.13
2022-08-19T14:16:31.353Z,5.22
2022-08-19T14:18:58.376Z,3.95
2022-08-19T14:21:26.675Z,5.15
2022-08-19T14:23:54.428Z,3.35
2022-08-19T14:26:23.096Z,5.03
2022-08-19T14:28:51.317Z,3.15
2022-08-19T14:31:20.032Z,5.30
2022-08-19T14:33:51.323Z,5.30
2022-08-19T14:36:19.481Z,3.83
2022-08-19T14:38:46.649Z,3.97
2022-08-19T14:41:22.826Z,5.00
2022-08-19T14:43:53.109Z,5.45
2022-08-19T14:46:23.745Z,6.15
2022-08-19T14:48:55.233Z,6.18
2022-08-19T14:51:27.674Z,5.82
2022-08-19T14:53:55.223Z,4.72
2022-08-19T14:56:28.415Z,5.10
2022-08-19T14:58:55.710Z,4.32
2022-08-19T15:01:24.156Z,6.45
2022-08-19T15:03:55.797Z,5.15
2022-08-19T15:06:24.724Z,5.13
2022-08-19T15:08:52.770Z,4.63
2022-08-19T15:11:22.272Z,7.23
2022-08-19T15:13:49.339Z,5.45
2022-08-19T15:16:17.800Z,5.88
2022-08-19T15:18:46.408Z,5.97
2022-08-19T15:21:15.284Z,3.93
2022-08-19T15:23:42.205Z,6.78
2022-08-19T15:26:16.050Z,5.40
2022-08-19T15:28:43.860Z,4.35
2022-08-19T15:31:23.262Z,5.15
2022-08-19T15:33:58.275Z,4.40
2022-08-19T15:36:26.328Z,4.60
2022-08-19T15:38:53.470Z,5.15
2022-08-19T15:41:30.474Z,7.15
2022-08-19T15:44:10.268Z,7.68
2022-08-19T15:46:39.591Z,7.93
2022-08-19T15:49:07.992Z,5.82
2022-08-19T15:51:36.887Z,5.93
2022-08-19T15:54:06.632Z,6.70
2022-08-19T15:56:58.015Z,7.13
2022-08-19T15:59:47.081Z,6.63
2022-08-19T16:02:33.877Z,5.50
2022-08-19T16:05:19.559Z,5.22
2022-08-19T16:07:47.957Z,7.85
2022-08-19T16:10:27.199Z,5.32
2022-08-19T16:12:57.390Z,4.85
2022-08-19T16:15:27.786Z,6.68
2022-08-19T16:17:57.426Z,5.88
2022-08-19T16:20:27.431Z,6.15
2022-08-19T16:22:56.496Z,4.32
2022-08-19T16:25:27.551Z,4.40
2022-08-19T16:28:06.431Z,4.82
2022-08-19T16:30:39.770Z,6.53
2022-08-19T16:33:07.311Z,6.60
2022-08-19T16:35:34.320Z,5.43
2022-08-19T16:38:02.600Z,5.20
2022-08-19T16:40:29.771Z,3.05
2022-08-19T16:42:56.690Z,4.72
2022-08-19T16:45:23.928Z,2.90
2022-08-19T16:47:51.046Z,3.58
2022-08-19T16:50:25.359Z,4.20
2022-08-19T16:53:00.478Z,3.25
2022-08-19T16:55:28.381Z,3.50
2022-08-19T16:57:55.501Z,2.63
2022-08-19T17:00:22.655Z,3.38
2022-08-19T17:02:49.597Z,3.95
2022-08-19T17:05:16.961Z,4.75
2022-08-19T17:07:43.909Z,4.18
2022-08-19T17:10:10.905Z,2.65
2022-08-19T17:12:37.782Z,3.35
2022-08-19T17:15:07.091Z,3.47
2022-08-19T17:17:34.674Z,3.20
2022-08-19T17:20:02.772Z,2.70
2022-08-19T17:22:29.922Z,11.00
2022-08-19T17:24:58.255Z,1.85
2022-08-19T17:27:27.317Z,2.38
2022-08-19T17:29:59.880Z,2.92
2022-08-19T17:32:27.425Z,1.92
2022-08-19T17:34:54.549Z,2.10
2022-08-19T17:37:22.023Z,5.00
2022-08-19T17:39:51.841Z,2.38
2022-08-19T17:42:19.482Z,2.35
2022-08-19T17:44:50.680Z,2.35
2022-08-19T17:47:19.600Z,2.55
2022-08-19T17:49:46.848Z,4.78
2022-08-19T17:52:14.168Z,3.70
2022-08-19T17:54:41.136Z,4.95
2022-08-19T17:57:09.673Z,2.88
2022-08-19T17:59:37.501Z,3.70
2022-08-19T18:02:06.844Z,4.78
2022-08-19T18:04:38.497Z,5.55
2022-08-19T18:07:06.277Z,3.13
2022-08-19T18:09:41.948Z,4.90
2022-08-19T18:12:12.275Z,3.50
2022-08-19T18:14:40.099Z,3.95
2022-08-19T18:17:13.209Z,4.53
2022-08-19T18:19:43.545Z,3.58
2022-08-19T18:22:22.507Z,3.90
2022-08-19T18:24:49.776Z,5.88
2022-08-19T18:27:16.911Z,5.15
2022-08-19T18:29:47.149Z,5.95
2022-08-19T18:32:18.155Z,5.30
2022-08-19T18:34:50.871Z,4.25
2022-08-19T18:37:17.748Z,9.65
2022-08-19T18:40:03.477Z,5.75
2022-08-19T18:43:05.872Z,6.40
2022-08-19T18:45:51.580Z,6.43
2022-08-19T18:48:36.972Z,7.63
2022-08-19T18:51:05.004Z,8.23
2022-08-19T18:53:34.905Z,8.65
2022-08-19T18:56:02.243Z,10.93
2022-08-19T18:58:34.954Z,9.55
2022-08-19T19:01:11.770Z,8.90
2022-08-19T19:03:45.778Z,9.25
2022-08-19T19:06:21.631Z,10.90
2022-08-19T19:08:50.389Z,10.88
2022-08-19T19:11:24.519Z,10.77
2022-08-19T19:13:51.822Z,9.15
2022-08-19T19:16:23.734Z,12.02
2022-08-19T19:18:52.752Z,9.88
2022-08-19T19:21:23.123Z,11.85
2022-08-19T19:23:51.337Z,11.38
2022-08-19T19:26:18.285Z,10.68
2022-08-19T19:28:46.641Z,10.25
2022-08-19T19:31:17.122Z,12.20
2022-08-19T19:33:44.981Z,13.50
2022-08-19T19:36:12.857Z,13.48
2022-08-19T19:38:47.715Z,16.60
2022-08-19T19:41:17.834Z,14.23
2022-08-19T19:43:44.699Z,12.23
2022-08-19T19:46:11.644Z,16.67
2022-08-19T19:48:41.531Z,14.57
2022-08-19T19:51:08.552Z,14.48
2022-08-19T19:53:37.059Z,13.90
2022-08-19T19:56:04.682Z,12.40
2022-08-19T19:58:33.688Z,12.80
2022-08-19T20:01:01.403Z,14.63
2022-08-19T20:03:34.910Z,11.88
2022-08-19T20:06:01.901Z,12.65
2022-08-19T20:08:47.986Z,11.32
2022-08-19T20:11:31.740Z,12.95
2022-08-19T20:14:01.478Z,10.27
2022-08-19T20:16:30.951Z,10.25
2022-08-19T20:19:00.476Z,9.30
2022-08-19T20:21:32.381Z,10.50
2022-08-19T20:24:09.127Z,9.10
2022-08-19T20:26:37.741Z,12.48
2022-08-19T20:29:13.408Z,8.98
2022-08-19T20:31:58.007Z,12.30
2022-08-19T20:34:27.434Z,9.70
2022-08-19T20:36:54.291Z,12.25
2022-08-19T20:39:21.129Z,10.65
2022-08-19T20:41:48.786Z,8.77
2022-08-19T20:44:16.058Z,8.45
2022-08-19T20:46:42.931Z,8.07
2022-08-19T20:49:26.831Z,11.52
2022-08-19T20:51:54.690Z,9.57
2022-08-19T20:54:21.632Z,10.45
2022-08-19T20:56:48.569Z,7.10
2022-08-19T20:59:15.746Z,8.65
2022-08-19T21:01:42.620Z,11.40
2022-08-19T21:04:09.535Z,8.45
2022-08-19T21:06:38.800Z,10.60
2022-08-19T21:09:09.286Z,7.70
2022-08-19T21:11:36.743Z,9.77
2022-08-19T21:14:03.760Z,10.20
2022-08-19T21:16:32.703Z,7.00
2022-08-19T21:19:00.259Z,7.60
2022-08-19T21:21:27.211Z,9.65
2022-08-19T21:23:54.058Z,8.68
2022-08-19T21:26:21.118Z,8.43
2022-08-19T21:28:48.024Z,11.40
2022-08-19T21:31:15.849Z,9.85
2022-08-19T21:33:42.935Z,8.40
2022-08-19T21:36:10.168Z,9.63
2022-08-19T21:38:38.012Z,7.00
2022-08-19T21:41:06.792Z,12.00
2022-08-19T21:43:35.435Z,7.72
2022-08-19T21:46:05.432Z,9.35
2022-08-19T21:48:32.850Z,9.95
2022-08-19T21:50:59.803Z,11.25
2022-08-19T21:53:31.515Z,10.98
2022-08-19T21:56:02.042Z,8.75
2022-08-19T21:58:30.704Z,8.25
2022-08-19T22:01:05.621Z,6.35
2022-08-19T22:03:36.836Z,7.93
2022-08-19T22:06:04.409Z,7.07
2022-08-19T22:08:31.546Z,18.52
2022-08-19T22:11:01.246Z,11.02
2022-08-19T22:13:28.288Z,9.40
2022-08-19T22:15:55.316Z,9.55
2022-08-19T22:18:22.309Z,8.38
2022-08-19T22:20:50.166Z,7.70
2022-08-19T22:23:17.110Z,9.40
2022-08-19T22:25:46.927Z,10.07
2022-08-19T22:28:19.070Z,10.52
2022-08-19T22:30:57.108Z,8.07
2022-08-19T22:33:25.853Z,8.43
2022-08-19T22:35:53.668Z,9.82
2022-08-19T22:38:20.489Z,6.97
2022-08-19T22:40:49.235Z,9.00
2022-08-19T22:43:18.222Z,10.40
2022-08-19T22:45:46.608Z,8.65
2022-08-19T22:48:15.656Z,10.17
2022-08-19T22:50:44.364Z,10.57
2022-08-19T22:53:12.361Z,8.75
2022-08-19T22:55:39.931Z,13.25
2022-08-19T22:58:06.775Z,13.70
2022-08-19T23:00:34.423Z,9.98
2022-08-19T23:03:02.231Z,8.93
2022-08-19T23:05:31.824Z,14.27
2022-08-19T23:07:58.976Z,11.90
2022-08-19T23:10:28.877Z,16.02
2022-08-19T23:12:59.065Z,16.27
2022-08-19T23:15:30.237Z,21.55
2022-08-19T23:17:59.796Z,23.30
2022-08-19T23:20:30.001Z,17.88
2022-08-19T23:22:57.698Z,18.67
2022-08-19T23:25:27.584Z,16.23
2022-08-19T23:28:13.771Z,17.48
2022-08-19T23:30:44.797Z,15.98
2022-08-19T23:33:24.818Z,18.63
2022-08-19T23:35:55.054Z,16.60
2022-08-19T23:38:23.273Z,17.85
2022-08-19T23:40:56.978Z,19.08
2022-08-19T23:43:25.089Z,19.38
2022-08-19T23:45:53.707Z,20.27
2022-08-19T23:48:26.026Z,21.20
2022-08-19T23:50:57.033Z,16.55
2022-08-19T23:53:24.719Z,16.40
2022-08-19T23:55:51.988Z,14.35
2022-08-19T23:58:19.948Z,15.07
